sensor_id;sensor_type;location;lat;lon;timestamp;P1;durP1;ratioP1;P2;durP2;ratioP2
4616;SDS011;2321;42.704;23.384;2023-07-28T00:01:57;12.67;;;4.77;;
4616;SDS011;2321;42.704;23.384;2023-07-28T00:04:24;5.77;;;3.93;;
4616;SDS011;2321;42.704;23.384;2023-07-28T00:06:51;5.03;;;3.23;;
4616;SDS011;2321;42.704;23.384;2023-07-28T00:09:18;6.80;;;4.57;;
4616;SDS011;2321;42.704;23.384;2023-07-28T00:11:46;8.27;;;4.93;;
4616;SDS011;2321;42.704;23.384;2023-07-28T00:14:13;9.17;;;4.97;;
4616;SDS011;2321;42.704;23.384;2023-07-28T00:16:40;6.47;;;4.40;;
4616;SDS011;2321;42.704;23.384;2023-07-28T00:19:07;5.80;;;4.83;;
4616;SDS011;2321;42.704;23.384;2023-07-28T00:21:33;7.43;;;4.63;;
4616;SDS011;2321;42.704;23.384;2023-07-28T00:24:00;5.40;;;3.93;;
4616;SDS011;2321;42.704;23.384;2023-07-28T00:26:27;6.87;;;4.70;;
4616;SDS011;2321;42.704;23.384;2023-07-28T00:28:56;7.77;;;3.90;;
4616;SDS011;2321;42.704;23.384;2023-07-28T00:31:24;5.97;;;4.03;;
4616;SDS011;2321;42.704;23.384;2023-07-28T00:33:51;24.00;;;7.23;;
4616;SDS011;2321;42.704;23.384;2023-07-28T00:36:18;19.43;;;6.77;;
4616;SDS011;2321;42.704;23.384;2023-07-28T00:38:45;5.50;;;4.30;;
4616;SDS011;2321;42.704;23.384;2023-07-28T00:41:12;9.07;;;4.27;;
4616;SDS011;2321;42.704;23.384;2023-07-28T00:43:38;7.90;;;4.23;;
4616;SDS011;2321;42.704;23.384;2023-07-28T00:46:07;6.50;;;5.13;;
4616;SDS011;2321;42.704;23.384;2023-07-28T00:48:35;7.33;;;4.23;;
4616;SDS011;2321;42.704;23.384;2023-07-28T00:51:01;5.43;;;4.40;;
4616;SDS011;2321;42.704;23.384;2023-07-28T00:53:29;10.80;;;5.23;;
4616;SDS011;2321;42.704;23.384;2023-07-28T00:55:57;7.47;;;4.93;;
4616;SDS011;2321;42.704;23.384;2023-07-28T00:58:24;12.27;;;5.83;;
4616;SDS011;2321;42.704;23.384;2023-07-28T01:00:51;8.57;;;5.77;;
4616;SDS011;2321;42.704;23.384;2023-07-28T01:03:19;13.87;;;5.97;;
4616;SDS011;2321;42.704;23.384;2023-07-28T01:05:48;6.07;;;4.10;;
4616;SDS011;2321;42.704;23.384;2023-07-28T01:08:23;6.50;;;4.43;;
4616;SDS011;2321;42.704;23.384;2023-07-28T01:10:56;6.23;;;5.07;;
4616;SDS011;2321;42.704;23.384;2023-07-28T01:13:23;5.87;;;4.43;;
4616;SDS011;2321;42.704;23.384;2023-07-28T01:15:50;6.17;;;4.30;;
4616;SDS011;2321;42.704;23.384;2023-07-28T01:18:17;6.77;;;5.63;;
4616;SDS011;2321;42.704;23.384;2023-07-28T01:20:45;5.97;;;4.80;;
4616;SDS011;2321;42.704;23.384;2023-07-28T01:23:16;7.07;;;4.70;;
4616;SDS011;2321;42.704;23.384;2023-07-28T01:25:49;5.90;;;4.13;;
4616;SDS011;2321;42.704;23.384;2023-07-28T01:28:28;5.27;;;4.03;;
4616;SDS011;2321;42.704;23.384;2023-07-28T01:30:56;5.90;;;4.57;;
4616;SDS011;2321;42.704;23.384;2023-07-28T01:33:22;7.87;;;5.10;;
4616;SDS011;2321;42.704;23.384;2023-07-28T01:35:49;5.60;;;4.77;;
4616;SDS011;2321;42.704;23.384;2023-07-28T01:38:16;5.63;;;4.60;;
4616;SDS011;2321;42.704;23.384;2023-07-28T01:40:43;8.67;;;4.40;;
4616;SDS011;2321;42.704;23.384;2023-07-28T01:43:10;5.87;;;4.13;;
4616;SDS011;2321;42.704;23.384;2023-07-28T01:45:38;7.43;;;5.37;;
4616;SDS011;2321;42.704;23.384;2023-07-28T01:48:05;7.60;;;5.30;;
4616;SDS011;2321;42.704;23.384;2023-07-28T01:50:33;5.53;;;4.67;;
4616;SDS011;2321;42.704;23.384;2023-07-28T01:53:00;5.53;;;4.83;;
4616;SDS011;2321;42.704;23.384;2023-07-28T01:55:27;6.77;;;4.87;;
4616;SDS011;2321;42.704;23.384;2023-07-28T01:57:55;6.03;;;4.80;;
4616;SDS011;2321;42.704;23.384;2023-07-28T02:00:23;7.33;;;5.10;;
4616;SDS011;2321;42.704;23.384;2023-07-28T02:02:52;6.07;;;5.13;;
4616;SDS011;2321;42.704;23.384;2023-07-28T02:05:20;7.67;;;4.87;;
4616;SDS011;2321;42.704;23.384;2023-07-28T02:07:47;6.13;;;5.10;;
4616;SDS011;2321;42.704;23.384;2023-07-28T02:10:14;6.80;;;5.03;;
4616;SDS011;2321;42.704;23.384;2023-07-28T02:12:41;5.73;;;4.23;;
4616;SDS011;2321;42.704;23.384;2023-07-28T02:15:08;6.40;;;5.43;;
4616;SDS011;2321;42.704;23.384;2023-07-28T02:17:35;5.60;;;4.70;;
4616;SDS011;2321;42.704;23.384;2023-07-28T02:20:04;7.40;;;5.13;;
4616;SDS011;2321;42.704;23.384;2023-07-28T02:22:32;5.23;;;4.10;;
4616;SDS011;2321;42.704;23.384;2023-07-28T02:24:59;10.23;;;5.77;;
4616;SDS011;2321;42.704;23.384;2023-07-28T02:27:27;7.20;;;5.73;;
4616;SDS011;2321;42.704;23.384;2023-07-28T02:29:54;6.70;;;5.37;;
4616;SDS011;2321;42.704;23.384;2023-07-28T02:32:21;5.73;;;4.87;;
4616;SDS011;2321;42.704;23.384;2023-07-28T02:34:48;5.77;;;4.97;;
4616;SDS011;2321;42.704;23.384;2023-07-28T02:37:16;7.27;;;5.00;;
4616;SDS011;2321;42.704;23.384;2023-07-28T02:39:43;5.53;;;4.63;;
4616;SDS011;2321;42.704;23.384;2023-07-28T02:42:11;6.27;;;5.40;;
4616;SDS011;2321;42.704;23.384;2023-07-28T02:44:38;5.47;;;4.37;;
4616;SDS011;2321;42.704;23.384;2023-07-28T02:47:05;5.70;;;4.77;;
4616;SDS011;2321;42.704;23.384;2023-07-28T02:49:32;8.00;;;5.23;;
4616;SDS011;2321;42.704;23.384;2023-07-28T02:51:59;8.70;;;5.13;;
4616;SDS011;2321;42.704;23.384;2023-07-28T02:54:29;6.70;;;4.70;;
4616;SDS011;2321;42.704;23.384;2023-07-28T02:56:56;6.43;;;5.63;;
4616;SDS011;2321;42.704;23.384;2023-07-28T02:59:23;5.63;;;4.73;;
4616;SDS011;2321;42.704;23.384;2023-07-28T03:01:50;9.53;;;4.77;;
4616;SDS011;2321;42.704;23.384;2023-07-28T03:04:17;7.40;;;4.87;;
4616;SDS011;2321;42.704;23.384;2023-07-28T03:06:45;5.97;;;5.23;;
4616;SDS011;2321;42.704;23.384;2023-07-28T03:09:13;5.50;;;4.53;;
4616;SDS011;2321;42.704;23.384;2023-07-28T03:11:42;5.43;;;4.43;;
4616;SDS011;2321;42.704;23.384;2023-07-28T03:14:09;5.00;;;3.53;;
4616;SDS011;2321;42.704;23.384;2023-07-28T03:16:38;6.83;;;5.13;;
4616;SDS011;2321;42.704;23.384;2023-07-28T03:19:04;5.17;;;4.20;;
4616;SDS011;2321;42.704;23.384;2023-07-28T03:21:31;6.60;;;4.93;;
4616;SDS011;2321;42.704;23.384;2023-07-28T03:23:59;7.33;;;4.80;;
4616;SDS011;2321;42.704;23.384;2023-07-28T03:26:26;8.33;;;5.40;;
4616;SDS011;2321;42.704;23.384;2023-07-28T03:28:54;5.27;;;4.10;;
4616;SDS011;2321;42.704;23.384;2023-07-28T03:31:21;6.47;;;4.90;;
4616;SDS011;2321;42.704;23.384;2023-07-28T03:33:48;6.30;;;5.10;;
4616;SDS011;2321;42.704;23.384;2023-07-28T03:36:15;7.00;;;4.63;;
4616;SDS011;2321;42.704;23.384;2023-07-28T03:38:42;12.27;;;5.93;;
4616;SDS011;2321;42.704;23.384;2023-07-28T03:41:09;11.03;;;5.77;;
4616;SDS011;2321;42.704;23.384;2023-07-28T03:43:36;14.27;;;5.73;;
4616;SDS011;2321;42.704;23.384;2023-07-28T03:46:04;15.30;;;7.17;;
4616;SDS011;2321;42.704;23.384;2023-07-28T03:48:31;23.57;;;7.10;;
4616;SDS011;2321;42.704;23.384;2023-07-28T03:50:58;17.13;;;9.87;;
4616;SDS011;2321;42.704;23.384;2023-07-28T03:53:25;47.07;;;39.03;;
4616;SDS011;2321;42.704;23.384;2023-07-28T03:55:52;18.73;;;12.50;;
4616;SDS011;2321;42.704;23.384;2023-07-28T03:58:22;33.20;;;17.03;;
4616;SDS011;2321;42.704;23.384;2023-07-28T04:00:49;377.53;;;90.47;;
4616;SDS011;2321;42.704;23.384;2023-07-28T04:03:18;55.10;;;44.03;;
4616;SDS011;2321;42.704;23.384;2023-07-28T04:05:44;11.40;;;7.43;;
4616;SDS011;2321;42.704;23.384;2023-07-28T04:08:11;92.93;;;27.40;;
4616;SDS011;2321;42.704;23.384;2023-07-28T04:10:38;202.90;;;65.33;;
4616;SDS011;2321;42.704;23.384;2023-07-28T04:13:05;391.03;;;161.37;;
4616;SDS011;2321;42.704;23.384;2023-07-28T04:15:32;48.93;;;25.47;;
4616;SDS011;2321;42.704;23.384;2023-07-28T04:17:59;89.73;;;33.67;;
4616;SDS011;2321;42.704;23.384;2023-07-28T04:20:27;426.70;;;118.23;;
4616;SDS011;2321;42.704;23.384;2023-07-28T04:22:54;530.37;;;164.27;;
4616;SDS011;2321;42.704;23.384;2023-07-28T04:25:21;609.13;;;188.77;;
4616;SDS011;2321;42.704;23.384;2023-07-28T04:27:48;39.47;;;25.67;;
4616;SDS011;2321;42.704;23.384;2023-07-28T04:30:14;30.10;;;21.47;;
4616;SDS011;2321;42.704;23.384;2023-07-28T04:32:41;65.43;;;36.57;;
4616;SDS011;2321;42.704;23.384;2023-07-28T04:35:08;383.30;;;88.17;;
4616;SDS011;2321;42.704;23.384;2023-07-28T04:37:36;796.23;;;259.73;;
4616;SDS011;2321;42.704;23.384;2023-07-28T04:40:04;975.67;;;280.57;;
4616;SDS011;2321;42.704;23.384;2023-07-28T04:42:31;861.53;;;261.67;;
4616;SDS011;2321;42.704;23.384;2023-07-28T04:44:58;722.93;;;234.33;;
4616;SDS011;2321;42.704;23.384;2023-07-28T04:47:25;821.67;;;216.77;;
4616;SDS011;2321;42.704;23.384;2023-07-28T04:49:52;624.00;;;178.57;;
4616;SDS011;2321;42.704;23.384;2023-07-28T04:52:18;570.10;;;182.53;;
4616;SDS011;2321;42.704;23.384;2023-07-28T04:54:47;555.93;;;227.90;;
4616;SDS011;2321;42.704;23.384;2023-07-28T04:57:13;328.37;;;155.13;;
4616;SDS011;2321;42.704;23.384;2023-07-28T04:59:40;626.60;;;225.53;;
4616;SDS011;2321;42.704;23.384;2023-07-28T05:02:08;89.67;;;28.20;;
4616;SDS011;2321;42.704;23.384;2023-07-28T05:04:35;58.27;;;25.10;;
4616;SDS011;2321;42.704;23.384;2023-07-28T05:07:02;231.93;;;65.20;;
4616;SDS011;2321;42.704;23.384;2023-07-28T05:09:29;116.03;;;35.80;;
4616;SDS011;2321;42.704;23.384;2023-07-28T05:11:57;215.90;;;62.60;;
4616;SDS011;2321;42.704;23.384;2023-07-28T05:14:24;45.10;;;17.17;;
4616;SDS011;2321;42.704;23.384;2023-07-28T05:16:51;27.40;;;8.73;;
4616;SDS011;2321;42.704;23.384;2023-07-28T05:19:18;18.30;;;5.60;;
4616;SDS011;2321;42.704;23.384;2023-07-28T05:21:44;27.07;;;8.43;;
4616;SDS011;2321;42.704;23.384;2023-07-28T05:24:11;27.33;;;8.17;;
4616;SDS011;2321;42.704;23.384;2023-07-28T05:26:38;19.23;;;6.77;;
4616;SDS011;2321;42.704;23.384;2023-07-28T05:29:06;33.23;;;7.97;;
4616;SDS011;2321;42.704;23.384;2023-07-28T05:31:33;35.80;;;9.77;;
4616;SDS011;2321;42.704;23.384;2023-07-28T05:34:00;5.70;;;4.10;;
4616;SDS011;2321;42.704;23.384;2023-07-28T05:36:27;8.93;;;5.13;;
4616;SDS011;2321;42.704;23.384;2023-07-28T05:38:54;9.47;;;4.40;;
4616;SDS011;2321;42.704;23.384;2023-07-28T05:41:22;5.87;;;4.37;;
4616;SDS011;2321;42.704;23.384;2023-07-28T05:43:50;5.47;;;4.43;;
4616;SDS011;2321;42.704;23.384;2023-07-28T05:46:18;5.77;;;4.40;;
4616;SDS011;2321;42.704;23.384;2023-07-28T05:48:45;6.00;;;3.90;;
4616;SDS011;2321;42.704;23.384;2023-07-28T05:51:12;12.13;;;9.50;;
4616;SDS011;2321;42.704;23.384;2023-07-28T05:53:38;6.43;;;5.80;;
4616;SDS011;2321;42.704;23.384;2023-07-28T05:56:05;11.30;;;9.67;;
4616;SDS011;2321;42.704;23.384;2023-07-28T05:58:32;11.97;;;7.13;;
4616;SDS011;2321;42.704;23.384;2023-07-28T06:00:59;10.33;;;5.10;;
4616;SDS011;2321;42.704;23.384;2023-07-28T06:03:27;11.30;;;8.47;;
4616;SDS011;2321;42.704;23.384;2023-07-28T06:05:56;10.70;;;5.27;;
4616;SDS011;2321;42.704;23.384;2023-07-28T06:08:22;6.20;;;5.33;;
4616;SDS011;2321;42.704;23.384;2023-07-28T06:10:49;5.47;;;4.70;;
4616;SDS011;2321;42.704;23.384;2023-07-28T06:13:16;7.63;;;6.17;;
4616;SDS011;2321;42.704;23.384;2023-07-28T06:15:43;6.70;;;4.90;;
4616;SDS011;2321;42.704;23.384;2023-07-28T06:18:10;5.47;;;4.37;;
4616;SDS011;2321;42.704;23.384;2023-07-28T06:20:41;6.30;;;5.10;;
4616;SDS011;2321;42.704;23.384;2023-07-28T06:23:08;6.60;;;4.53;;
4616;SDS011;2321;42.704;23.384;2023-07-28T06:25:35;6.90;;;4.40;;
4616;SDS011;2321;42.704;23.384;2023-07-28T06:28:03;5.67;;;4.77;;
4616;SDS011;2321;42.704;23.384;2023-07-28T06:30:31;5.33;;;4.40;;
4616;SDS011;2321;42.704;23.384;2023-07-28T06:32:58;6.27;;;5.10;;
4616;SDS011;2321;42.704;23.384;2023-07-28T06:35:25;8.57;;;5.50;;
4616;SDS011;2321;42.704;23.384;2023-07-28T06:37:54;5.57;;;3.90;;
4616;SDS011;2321;42.704;23.384;2023-07-28T06:40:21;10.17;;;5.10;;
4616;SDS011;2321;42.704;23.384;2023-07-28T06:42:47;18.40;;;8.30;;
4616;SDS011;2321;42.704;23.384;2023-07-28T06:45:14;11.00;;;5.03;;
4616;SDS011;2321;42.704;23.384;2023-07-28T06:47:41;18.63;;;6.00;;
4616;SDS011;2321;42.704;23.384;2023-07-28T06:50:10;6.20;;;4.07;;
4616;SDS011;2321;42.704;23.384;2023-07-28T06:52:37;8.53;;;4.43;;
4616;SDS011;2321;42.704;23.384;2023-07-28T06:55:06;13.43;;;6.27;;
4616;SDS011;2321;42.704;23.384;2023-07-28T06:57:33;13.47;;;6.23;;
4616;SDS011;2321;42.704;23.384;2023-07-28T07:00:00;14.93;;;5.23;;
4616;SDS011;2321;42.704;23.384;2023-07-28T07:02:28;11.97;;;6.03;;
4616;SDS011;2321;42.704;23.384;2023-07-28T07:04:55;10.70;;;5.97;;
4616;SDS011;2321;42.704;23.384;2023-07-28T07:07:22;11.07;;;5.10;;
4616;SDS011;2321;42.704;23.384;2023-07-28T07:09:50;15.83;;;6.37;;
4616;SDS011;2321;42.704;23.384;2023-07-28T07:12:19;6.73;;;4.87;;
4616;SDS011;2321;42.704;23.384;2023-07-28T07:14:46;7.37;;;6.60;;
4616;SDS011;2321;42.704;23.384;2023-07-28T07:17:14;13.97;;;7.70;;
4616;SDS011;2321;42.704;23.384;2023-07-28T07:19:53;20.57;;;7.07;;
4616;SDS011;2321;42.704;23.384;2023-07-28T07:22:20;16.80;;;6.70;;
4616;SDS011;2321;42.704;23.384;2023-07-28T07:24:47;13.67;;;5.73;;
4616;SDS011;2321;42.704;23.384;2023-07-28T07:27:14;23.03;;;7.03;;
4616;SDS011;2321;42.704;23.384;2023-07-28T07:29:42;11.73;;;5.60;;
4616;SDS011;2321;42.704;23.384;2023-07-28T07:32:09;11.37;;;6.30;;
4616;SDS011;2321;42.704;23.384;2023-07-28T07:34:39;6.93;;;4.97;;
4616;SDS011;2321;42.704;23.384;2023-07-28T07:37:06;20.33;;;6.77;;
4616;SDS011;2321;42.704;23.384;2023-07-28T07:39:33;27.13;;;8.57;;
4616;SDS011;2321;42.704;23.384;2023-07-28T07:42:01;9.40;;;5.43;;
4616;SDS011;2321;42.704;23.384;2023-07-28T07:44:28;15.27;;;7.40;;
4616;SDS011;2321;42.704;23.384;2023-07-28T07:46:58;21.80;;;7.70;;
4616;SDS011;2321;42.704;23.384;2023-07-28T07:49:26;12.03;;;5.17;;
4616;SDS011;2321;42.704;23.384;2023-07-28T07:51:53;15.93;;;6.80;;
4616;SDS011;2321;42.704;23.384;2023-07-28T07:54:20;16.70;;;6.60;;
4616;SDS011;2321;42.704;23.384;2023-07-28T07:56:49;10.13;;;5.50;;
4616;SDS011;2321;42.704;23.384;2023-07-28T07:59:16;20.20;;;6.80;;
4616;SDS011;2321;42.704;23.384;2023-07-28T08:01:43;7.90;;;4.70;;
4616;SDS011;2321;42.704;23.384;2023-07-28T08:04:12;11.90;;;6.33;;
4616;SDS011;2321;42.704;23.384;2023-07-28T08:06:39;22.47;;;7.77;;
4616;SDS011;2321;42.704;23.384;2023-07-28T08:09:05;13.50;;;5.17;;
4616;SDS011;2321;42.704;23.384;2023-07-28T08:11:33;16.17;;;6.80;;
4616;SDS011;2321;42.704;23.384;2023-07-28T08:14:00;16.30;;;6.87;;
4616;SDS011;2321;42.704;23.384;2023-07-28T08:16:27;7.43;;;4.47;;
4616;SDS011;2321;42.704;23.384;2023-07-28T08:18:54;5.27;;;4.67;;
4616;SDS011;2321;42.704;23.384;2023-07-28T08:21:22;7.07;;;5.57;;
4616;SDS011;2321;42.704;23.384;2023-07-28T08:23:49;8.73;;;4.57;;
4616;SDS011;2321;42.704;23.384;2023-07-28T08:26:16;6.00;;;5.27;;
4616;SDS011;2321;42.704;23.384;2023-07-28T08:28:42;5.13;;;4.20;;
4616;SDS011;2321;42.704;23.384;2023-07-28T08:31:09;11.97;;;7.20;;
4616;SDS011;2321;42.704;23.384;2023-07-28T08:33:36;5.50;;;4.80;;
4616;SDS011;2321;42.704;23.384;2023-07-28T08:36:03;9.27;;;4.97;;
4616;SDS011;2321;42.704;23.384;2023-07-28T08:38:32;5.77;;;5.03;;
4616;SDS011;2321;42.704;23.384;2023-07-28T08:40:58;5.73;;;4.43;;
4616;SDS011;2321;42.704;23.384;2023-07-28T08:43:25;4.83;;;3.87;;
4616;SDS011;2321;42.704;23.384;2023-07-28T08:45:53;19.10;;;7.20;;
4616;SDS011;2321;42.704;23.384;2023-07-28T08:48:20;18.27;;;7.47;;
4616;SDS011;2321;42.704;23.384;2023-07-28T08:50:47;22.27;;;6.93;;
4616;SDS011;2321;42.704;23.384;2023-07-28T08:53:13;12.17;;;7.37;;
4616;SDS011;2321;42.704;23.384;2023-07-28T08:55:42;6.23;;;4.07;;
4616;SDS011;2321;42.704;23.384;2023-07-28T08:58:15;6.77;;;4.57;;
4616;SDS011;2321;42.704;23.384;2023-07-28T09:00:44;4.13;;;3.77;;
4616;SDS011;2321;42.704;23.384;2023-07-28T09:03:14;25.23;;;8.90;;
4616;SDS011;2321;42.704;23.384;2023-07-28T09:05:41;7.60;;;4.03;;
4616;SDS011;2321;42.704;23.384;2023-07-28T09:08:09;209.97;;;59.63;;
4616;SDS011;2321;42.704;23.384;2023-07-28T09:10:44;195.57;;;55.90;;
4616;SDS011;2321;42.704;23.384;2023-07-28T09:13:14;200.47;;;56.43;;
4616;SDS011;2321;42.704;23.384;2023-07-28T09:15:42;596.80;;;170.97;;
4616;SDS011;2321;42.704;23.384;2023-07-28T09:18:09;197.20;;;57.50;;
4616;SDS011;2321;42.704;23.384;2023-07-28T09:20:40;197.03;;;55.30;;
4616;SDS011;2321;42.704;23.384;2023-07-28T09:23:08;12.70;;;5.90;;
4616;SDS011;2321;42.704;23.384;2023-07-28T09:25:47;452.70;;;128.50;;
4616;SDS011;2321;42.704;23.384;2023-07-28T09:28:15;11.53;;;6.33;;
4616;SDS011;2321;42.704;23.384;2023-07-28T09:30:45;6.13;;;4.47;;
4616;SDS011;2321;42.704;23.384;2023-07-28T09:33:14;6.60;;;5.33;;
4616;SDS011;2321;42.704;23.384;2023-07-28T09:35:55;567.67;;;168.33;;
4616;SDS011;2321;42.704;23.384;2023-07-28T09:38:22;189.90;;;56.07;;
4616;SDS011;2321;42.704;23.384;2023-07-28T09:40:55;203.60;;;62.13;;
4616;SDS011;2321;42.704;23.384;2023-07-28T09:43:24;582.03;;;181.60;;
4616;SDS011;2321;42.704;23.384;2023-07-28T09:45:51;199.43;;;60.43;;
4616;SDS011;2321;42.704;23.384;2023-07-28T09:48:18;585.57;;;189.17;;
4616;SDS011;2321;42.704;23.384;2023-07-28T09:50:45;206.33;;;64.07;;
4616;SDS011;2321;42.704;23.384;2023-07-28T09:53:13;203.53;;;63.10;;
4616;SDS011;2321;42.704;23.384;2023-07-28T09:55:40;205.20;;;62.07;;
4616;SDS011;2321;42.704;23.384;2023-07-28T09:58:11;186.53;;;54.03;;
4616;SDS011;2321;42.704;23.384;2023-07-28T10:00:42;9.73;;;6.53;;
4616;SDS011;2321;42.704;23.384;2023-07-28T10:03:09;215.80;;;62.17;;
4616;SDS011;2321;42.704;23.384;2023-07-28T10:05:38;589.47;;;180.67;;
4616;SDS011;2321;42.704;23.384;2023-07-28T10:08:05;200.30;;;60.17;;
4616;SDS011;2321;42.704;23.384;2023-07-28T10:10:33;397.77;;;114.33;;
4616;SDS011;2321;42.704;23.384;2023-07-28T10:13:00;614.33;;;191.73;;
4616;SDS011;2321;42.704;23.384;2023-07-28T10:15:29;12.20;;;6.20;;
4616;SDS011;2321;42.704;23.384;2023-07-28T10:17:58;222.20;;;65.27;;
4616;SDS011;2321;42.704;23.384;2023-07-28T10:20:32;477.60;;;139.57;;
4616;SDS011;2321;42.704;23.384;2023-07-28T10:23:04;587.20;;;181.90;;
4616;SDS011;2321;42.704;23.384;2023-07-28T10:25:33;503.63;;;147.47;;
4616;SDS011;2321;42.704;23.384;2023-07-28T10:28:03;46.33;;;11.20;;
4616;SDS011;2321;42.704;23.384;2023-07-28T10:30:37;211.63;;;65.00;;
4616;SDS011;2321;42.704;23.384;2023-07-28T10:33:26;479.93;;;146.20;;
4616;SDS011;2321;42.704;23.384;2023-07-28T10:35:57;227.77;;;65.83;;
4616;SDS011;2321;42.704;23.384;2023-07-28T10:38:28;506.17;;;149.30;;
4616;SDS011;2321;42.704;23.384;2023-07-28T10:41:04;210.60;;;64.03;;
4616;SDS011;2321;42.704;23.384;2023-07-28T10:43:36;725.50;;;456.05;;
4616;SDS011;2321;42.704;23.384;2023-07-28T10:46:06;686.60;;;357.98;;
4616;SDS011;2321;42.704;23.384;2023-07-28T10:48:35;70.63;;;23.80;;
4616;SDS011;2321;42.704;23.384;2023-07-28T10:51:02;203.07;;;56.77;;
4616;SDS011;2321;42.704;23.384;2023-07-28T10:53:31;493.73;;;147.33;;
4616;SDS011;2321;42.704;23.384;2023-07-28T10:55:58;206.03;;;67.53;;
4616;SDS011;2321;42.704;23.384;2023-07-28T10:58:26;536.87;;;153.17;;
4616;SDS011;2321;42.704;23.384;2023-07-28T11:00:53;493.07;;;141.23;;
4616;SDS011;2321;42.704;23.384;2023-07-28T11:03:21;50.17;;;13.53;;
4616;SDS011;2321;42.704;23.384;2023-07-28T11:05:49;41.27;;;13.17;;
4616;SDS011;2321;42.704;23.384;2023-07-28T11:08:16;209.00;;;66.47;;
4616;SDS011;2321;42.704;23.384;2023-07-28T11:10:42;660.07;;;217.87;;
4616;SDS011;2321;42.704;23.384;2023-07-28T11:13:09;658.90;;;232.87;;
4616;SDS011;2321;42.704;23.384;2023-07-28T11:15:36;95.83;;;48.13;;
4616;SDS011;2321;42.704;23.384;2023-07-28T11:18:03;621.70;;;198.57;;
4616;SDS011;2321;42.704;23.384;2023-07-28T11:20:32;221.27;;;71.53;;
4616;SDS011;2321;42.704;23.384;2023-07-28T11:23:00;478.77;;;168.90;;
4616;SDS011;2321;42.704;23.384;2023-07-28T11:25:28;508.60;;;156.10;;
4616;SDS011;2321;42.704;23.384;2023-07-28T11:27:57;604.87;;;201.43;;
4616;SDS011;2321;42.704;23.384;2023-07-28T11:30:24;533.87;;;165.20;;
4616;SDS011;2321;42.704;23.384;2023-07-28T11:32:51;217.53;;;69.17;;
4616;SDS011;2321;42.704;23.384;2023-07-28T11:35:19;481.57;;;195.33;;
4616;SDS011;2321;42.704;23.384;2023-07-28T11:37:49;646.27;;;221.50;;
4616;SDS011;2321;42.704;23.384;2023-07-28T11:40:19;527.13;;;158.47;;
4616;SDS011;2321;42.704;23.384;2023-07-28T11:42:47;204.60;;;68.00;;
4616;SDS011;2321;42.704;23.384;2023-07-28T11:45:16;23.87;;;10.03;;
4616;SDS011;2321;42.704;23.384;2023-07-28T11:47:57;44.77;;;14.90;;
4616;SDS011;2321;42.704;23.384;2023-07-28T11:50:25;467.07;;;156.23;;
4616;SDS011;2321;42.704;23.384;2023-07-28T11:52:54;499.40;;;170.70;;
4616;SDS011;2321;42.704;23.384;2023-07-28T11:55:23;223.63;;;78.97;;
4616;SDS011;2321;42.704;23.384;2023-07-28T11:57:56;207.90;;;66.80;;
4616;SDS011;2321;42.704;23.384;2023-07-28T12:00:29;707.37;;;291.10;;
4616;SDS011;2321;42.704;23.384;2023-07-28T12:03:06;719.53;;;305.57;;
4616;SDS011;2321;42.704;23.384;2023-07-28T12:05:34;767.70;;;381.93;;
4616;SDS011;2321;42.704;23.384;2023-07-28T12:08:03;725.03;;;289.87;;
4616;SDS011;2321;42.704;23.384;2023-07-28T12:10:30;397.97;;;111.07;;
4616;SDS011;2321;42.704;23.384;2023-07-28T12:12:58;646.90;;;207.77;;
4616;SDS011;2321;42.704;23.384;2023-07-28T12:15:34;475.23;;;168.67;;
4616;SDS011;2321;42.704;23.384;2023-07-28T12:18:08;160.20;;;52.70;;
4616;SDS011;2321;42.704;23.384;2023-07-28T12:20:38;193.77;;;61.07;;
4616;SDS011;2321;42.704;23.384;2023-07-28T12:23:08;38.60;;;13.33;;
4616;SDS011;2321;42.704;23.384;2023-07-28T12:25:35;20.93;;;11.53;;
4616;SDS011;2321;42.704;23.384;2023-07-28T12:28:03;43.00;;;14.00;;
4616;SDS011;2321;42.704;23.384;2023-07-28T12:30:30;561.20;;;190.77;;
4616;SDS011;2321;42.704;23.384;2023-07-28T12:32:57;183.53;;;54.07;;
4616;SDS011;2321;42.704;23.384;2023-07-28T12:35:24;22.47;;;9.20;;
4616;SDS011;2321;42.704;23.384;2023-07-28T12:37:55;195.83;;;58.93;;
4616;SDS011;2321;42.704;23.384;2023-07-28T12:40:26;52.67;;;13.80;;
4616;SDS011;2321;42.704;23.384;2023-07-28T12:42:54;139.50;;;36.03;;
4616;SDS011;2321;42.704;23.384;2023-07-28T12:45:21;61.70;;;15.40;;
4616;SDS011;2321;42.704;23.384;2023-07-28T12:47:50;51.30;;;13.30;;
4616;SDS011;2321;42.704;23.384;2023-07-28T12:50:18;194.57;;;58.17;;
4616;SDS011;2321;42.704;23.384;2023-07-28T12:52:45;183.73;;;58.63;;
4616;SDS011;2321;42.704;23.384;2023-07-28T12:55:12;477.87;;;177.13;;
4616;SDS011;2321;42.704;23.384;2023-07-28T12:57:40;43.77;;;12.73;;
4616;SDS011;2321;42.704;23.384;2023-07-28T13:00:08;193.90;;;60.50;;
4616;SDS011;2321;42.704;23.384;2023-07-28T13:02:38;30.60;;;10.10;;
4616;SDS011;2321;42.704;23.384;2023-07-28T13:05:06;20.53;;;7.10;;
4616;SDS011;2321;42.704;23.384;2023-07-28T13:07:34;377.67;;;120.00;;
4616;SDS011;2321;42.704;23.384;2023-07-28T13:10:01;459.77;;;149.17;;
4616;SDS011;2321;42.704;23.384;2023-07-28T13:12:28;27.00;;;9.80;;
4616;SDS011;2321;42.704;23.384;2023-07-28T13:14:57;200.43;;;63.37;;
4616;SDS011;2321;42.704;23.384;2023-07-28T13:17:23;19.47;;;7.03;;
4616;SDS011;2321;42.704;23.384;2023-07-28T13:19:50;70.77;;;21.17;;
4616;SDS011;2321;42.704;23.384;2023-07-28T13:22:17;75.43;;;26.77;;
4616;SDS011;2321;42.704;23.384;2023-07-28T13:24:44;176.73;;;54.73;;
4616;SDS011;2321;42.704;23.384;2023-07-28T13:27:11;213.57;;;72.70;;
4616;SDS011;2321;42.704;23.384;2023-07-28T13:29:38;181.73;;;58.03;;
4616;SDS011;2321;42.704;23.384;2023-07-28T13:32:16;198.90;;;64.73;;
4616;SDS011;2321;42.704;23.384;2023-07-28T13:34:44;83.53;;;23.73;;
4616;SDS011;2321;42.704;23.384;2023-07-28T13:37:11;112.33;;;31.47;;
4616;SDS011;2321;42.704;23.384;2023-07-28T13:39:38;32.00;;;10.53;;
4616;SDS011;2321;42.704;23.384;2023-07-28T13:42:05;167.50;;;54.33;;
4616;SDS011;2321;42.704;23.384;2023-07-28T13:44:32;195.53;;;65.27;;
4616;SDS011;2321;42.704;23.384;2023-07-28T13:46:59;516.53;;;182.07;;
4616;SDS011;2321;42.704;23.384;2023-07-28T13:49:27;18.37;;;7.60;;
4616;SDS011;2321;42.704;23.384;2023-07-28T13:51:55;14.10;;;6.50;;
4616;SDS011;2321;42.704;23.384;2023-07-28T13:54:21;32.67;;;10.33;;
4616;SDS011;2321;42.704;23.384;2023-07-28T13:56:48;25.77;;;8.90;;
4616;SDS011;2321;42.704;23.384;2023-07-28T13:59:15;469.83;;;152.63;;
4616;SDS011;2321;42.704;23.384;2023-07-28T14:01:42;464.00;;;148.60;;
4616;SDS011;2321;42.704;23.384;2023-07-28T14:04:09;188.90;;;62.47;;
4616;SDS011;2321;42.704;23.384;2023-07-28T14:06:37;218.10;;;73.03;;
4616;SDS011;2321;42.704;23.384;2023-07-28T14:09:04;27.60;;;9.03;;
4616;SDS011;2321;42.704;23.384;2023-07-28T14:11:31;172.93;;;56.80;;
4616;SDS011;2321;42.704;23.384;2023-07-28T14:13:57;28.80;;;9.20;;
4616;SDS011;2321;42.704;23.384;2023-07-28T14:16:24;71.97;;;23.47;;
4616;SDS011;2321;42.704;23.384;2023-07-28T14:18:51;52.07;;;14.17;;
4616;SDS011;2321;42.704;23.384;2023-07-28T14:21:18;37.23;;;9.47;;
4616;SDS011;2321;42.704;23.384;2023-07-28T14:23:46;218.97;;;69.40;;
4616;SDS011;2321;42.704;23.384;2023-07-28T14:26:13;207.87;;;63.27;;
4616;SDS011;2321;42.704;23.384;2023-07-28T14:28:40;91.77;;;26.93;;
4616;SDS011;2321;42.704;23.384;2023-07-28T14:31:07;191.20;;;60.80;;
4616;SDS011;2321;42.704;23.384;2023-07-28T14:33:34;83.47;;;26.57;;
4616;SDS011;2321;42.704;23.384;2023-07-28T14:36:01;83.03;;;30.53;;
4616;SDS011;2321;42.704;23.384;2023-07-28T14:38:28;26.87;;;8.87;;
4616;SDS011;2321;42.704;23.384;2023-07-28T14:40:56;159.23;;;51.43;;
4616;SDS011;2321;42.704;23.384;2023-07-28T14:43:23;180.60;;;59.97;;
4616;SDS011;2321;42.704;23.384;2023-07-28T14:45:50;25.63;;;9.30;;